Time;durP1;ratioP1;P1;durP2;ratioP2;P2;SDS_P1;SDS_P2;PMS_P1;PMS_P2;Temp;Humidity;BMP_temperature;BMP_pressure;BME280_temperature;BME280_humidity;BME280_pressure;Samples;Min_cycle;Max_cycle;Signal;HPM_P1;HPM_P2
2020/12/11 00:01:29;;;;;;;17.23;13.57;;;;;;;0.13;90.94;94476.00;6027977;23;20660;-82
2020/12/11 00:03:56;;;;;;;19.47;13.63;;;;;;;0.12;91.43;94482.16;5980037;23;20232;-81
2020/12/11 00:06:25;;;;;;;19.27;15.03;;;;;;;0.07;90.95;94479.16;6028212;23;20510;-82
2020/12/11 00:08:52;;;;;;;14.23;11.97;;;;;;;0.07;90.95;94481.75;6014679;23;20625;-81
2020/12/11 00:11:26;;;;;;;18.70;14.53;;;;;;;0.07;90.74;94480.94;6026635;23;20488;-81
2020/12/11 00:13:54;;;;;;;16.43;13.80;;;;;;;0.07;91.63;94473.97;6028312;23;20213;-81
2020/12/11 00:16:21;;;;;;;17.00;13.03;;;;;;;0.08;91.33;94473.03;6029672;23;20205;-80
2020/12/11 00:18:48;;;;;;;18.10;13.80;;;;;;;0.07;90.82;94473.16;6030138;23;20212;-80
2020/12/11 00:21:15;;;;;;;16.47;12.93;;;;;;;0.07;91.47;94476.56;6028253;23;20696;-81
2020/12/11 00:23:43;;;;;;;19.80;13.37;;;;;;;0.06;91.19;94474.13;6028591;23;20257;-81
2020/12/11 00:26:09;;;;;;;17.00;15.00;;;;;;;0.04;91.84;94474.28;6030680;23;20248;-81
2020/12/11 00:28:36;;;;;;;19.90;14.67;;;;;;;0.10;91.42;94484.09;6032096;23;20575;-81
2020/12/11 00:31:03;;;;;;;18.60;14.37;;;;;;;0.14;91.37;94480.22;6027564;23;20246;-81
2020/12/11 00:33:30;;;;;;;17.23;14.33;;;;;;;0.16;91.37;94488.66;6028221;23;20262;-81
2020/12/11 00:35:57;;;;;;;16.40;13.23;;;;;;;0.15;91.12;94479.25;6027349;23;20301;-81
2020/12/11 00:38:24;;;;;;;16.37;11.30;;;;;;;0.20;91.55;94482.22;6025771;23;20275;-81
2020/12/11 00:40:52;;;;;;;16.40;13.90;;;;;;;0.24;91.44;94486.13;6028253;23;20754;-81
2020/12/11 00:43:19;;;;;;;17.57;13.80;;;;;;;0.28;90.92;94487.47;6027730;23;20262;-81
2020/12/11 00:45:45;;;;;;;17.20;12.53;;;;;;;0.20;91.18;94495.19;6028994;23;20276;-81
2020/12/11 00:48:12;;;;;;;14.73;11.43;;;;;;;0.18;91.78;94494.53;6028376;23;20305;-81
2020/12/11 00:50:39;;;;;;;14.67;12.70;;;;;;;0.12;91.96;94482.16;6028257;23;20604;-81
2020/12/11 00:53:06;;;;;;;16.07;11.97;;;;;;;0.09;91.50;94477.28;6027847;23;20280;-81
2020/12/11 00:55:34;;;;;;;18.23;14.00;;;;;;;0.11;92.43;94470.16;6021736;23;20206;-81
2020/12/11 00:58:01;;;;;;;18.03;14.43;;;;;;;0.18;92.47;94471.19;6030824;23;20219;-81
2020/12/11 01:00:28;;;;;;;18.53;13.10;;;;;;;0.14;92.20;94461.25;6030140;23;20214;-81
2020/12/11 01:02:55;;;;;;;20.30;14.17;;;;;;;0.13;91.79;94468.22;6030321;23;20293;-80
2020/12/11 01:05:22;;;;;;;19.83;14.13;;;;;;;0.14;92.05;94474.22;6030550;23;20213;-81
2020/12/11 01:07:49;;;;;;;18.17;13.30;;;;;;;0.04;91.64;94463.91;6029599;23;20225;-80
2020/12/11 01:10:16;;;;;;;17.47;12.87;;;;;;;0.05;92.20;94470.72;6028160;23;20200;-80
2020/12/11 01:12:42;;;;;;;19.73;16.00;;;;;;;0.01;91.85;94469.41;6031492;23;20215;-80
2020/12/11 01:15:10;;;;;;;15.70;12.53;;;;;;;0.01;91.34;94468.59;6029120;23;20632;-81
2020/12/11 01:17:37;;;;;;;15.63;11.33;;;;;;;0.12;90.72;94464.00;6028405;23;20359;-81
2020/12/11 01:20:05;;;;;;;13.43;11.70;;;;;;;0.04;89.14;94469.09;6028381;23;20211;-81
2020/12/11 01:22:32;;;;;;;11.70;10.60;;;;;;;-0.06;89.14;94458.00;6030998;23;20207;-81
2020/12/11 01:24:59;;;;;;;12.67;10.50;;;;;;;-0.04;88.43;94463.84;6030014;23;20234;-80
2020/12/11 01:27:26;;;;;;;11.57;10.40;;;;;;;-0.07;87.71;94469.34;6030035;23;20259;-81
2020/12/11 01:29:53;;;;;;;10.47;9.50;;;;;;;-0.09;87.19;94468.66;6029102;23;20258;-81
2020/12/11 01:32:21;;;;;;;12.17;10.93;;;;;;;-0.08;86.01;94468.53;6030735;23;20218;-81
2020/12/11 01:34:48;;;;;;;12.10;9.90;;;;;;;-0.02;85.03;94464.50;6029998;23;20218;-81
2020/12/11 01:37:15;;;;;;;9.00;8.17;;;;;;;0.03;83.28;94461.47;6029027;23;20203;-81
2020/12/11 01:39:42;;;;;;;8.80;7.90;;;;;;;-0.12;83.22;94461.16;6030498;23;20224;-81
2020/12/11 01:42:10;;;;;;;14.17;10.27;;;;;;;-0.09;82.79;94461.72;6031425;23;20210;-81
2020/12/11 01:44:38;;;;;;;9.83;8.83;;;;;;;-0.05;82.33;94459.63;6031094;23;20208;-81
2020/12/11 01:47:06;;;;;;;10.10;8.67;;;;;;;-0.02;82.10;94461.91;6031579;23;20202;-80
2020/12/11 01:49:34;;;;;;;8.97;7.67;;;;;;;-0.06;81.24;94464.00;6030960;23;20284;-80
2020/12/11 01:52:01;;;;;;;13.60;11.63;;;;;;;-0.06;80.94;94458.00;6033273;23;20235;-80
2020/12/11 01:54:28;;;;;;;13.83;9.03;;;;;;;-0.13;81.70;94456.97;6031361;23;20210;-80
2020/12/11 01:57:00;;;;;;;12.30;9.67;;;;;;;-0.24;82.14;94454.59;6032637;23;20243;-80
2020/12/11 01:59:33;;;;;;;9.70;8.50;;;;;;;-0.26;82.77;94438.38;6031395;23;20358;-80
2020/12/11 02:02:03;;;;;;;10.43;9.33;;;;;;;-0.32;83.17;94442.34;6031619;23;20225;-80
2020/12/11 02:04:34;;;;;;;10.27;9.27;;;;;;;-0.42;83.86;94429.47;6031855;23;20855;-80
2020/12/11 02:07:04;;;;;;;11.27;10.07;;;;;;;-0.38;84.17;94433.38;6031343;23;21089;-80
2020/12/11 02:09:32;;;;;;;9.90;9.07;;;;;;;-0.41;83.38;94432.88;6028393;23;20451;-80
2020/12/11 02:12:00;;;;;;;10.83;9.70;;;;;;;-0.43;84.01;94435.63;6030790;23;20438;-80
2020/12/11 02:14:27;;;;;;;11.60;9.13;;;;;;;-0.41;83.65;94432.88;6033300;23;20436;-80
2020/12/11 02:16:57;;;;;;;10.03;8.97;;;;;;;-0.46;83.70;94435.91;6030859;23;20652;-79
2020/12/11 02:19:29;;;;;;;10.07;8.83;;;;;;;-0.43;83.55;94424.44;6032886;23;20995;-80
2020/12/11 02:21:58;;;;;;;10.73;9.50;;;;;;;-0.43;83.57;94424.44;6031174;23;20812;-80
2020/12/11 02:24:25;;;;;;;11.93;10.70;;;;;;;-0.50;84.16;94411.25;6030106;23;20921;-80
2020/12/11 02:26:54;;;;;;;10.20;9.10;;;;;;;-0.48;84.52;94416.28;6028722;23;20853;-80
2020/12/11 02:29:22;;;;;;;10.33;8.53;;;;;;;-0.42;83.87;94418.28;6029289;23;20518;-79
2020/12/11 02:31:49;;;;;;;15.53;9.07;;;;;;;-0.42;83.49;94406.16;6031119;23;20205;-79
2020/12/11 02:34:16;;;;;;;12.47;10.67;;;;;;;-0.43;83.45;94398.53;6030087;23;20592;-80
2020/12/11 02:36:43;;;;;;;13.00;11.60;;;;;;;-0.49;84.08;94393.94;6029595;23;20210;-80
2020/12/11 02:39:11;;;;;;;12.23;10.93;;;;;;;-0.42;83.81;94384.59;6028664;23;20281;-79
2020/12/11 02:41:38;;;;;;;11.10;10.10;;;;;;;-0.44;83.67;94387.34;6028614;23;20503;-80
2020/12/11 02:44:05;;;;;;;14.10;12.43;;;;;;;-0.43;83.50;94388.16;6030344;23;20435;-79
2020/12/11 02:46:32;;;;;;;12.80;11.60;;;;;;;-0.52;84.01;94370.91;6030019;23;20495;-79
2020/12/11 02:48:59;;;;;;;11.00;10.00;;;;;;;-0.58;84.15;94367.13;6029315;23;20239;-79
2020/12/11 02:51:26;;;;;;;10.80;9.63;;;;;;;-0.59;84.68;94365.50;6028458;23;20441;-79
2020/12/11 02:53:53;;;;;;;12.53;11.37;;;;;;;-0.62;83.92;94363.22;6028867;23;20225;-79
2020/12/11 02:56:22;;;;;;;10.83;9.73;;;;;;;-0.66;84.43;94361.88;6029702;23;20206;-79
2020/12/11 02:58:50;;;;;;;10.87;9.87;;;;;;;-0.48;83.20;94370.44;6028046;23;20286;-79
2020/12/11 03:01:17;;;;;;;11.40;10.30;;;;;;;-0.58;83.28;94369.72;6027901;23;20200;-79
2020/12/11 03:03:44;;;;;;;10.30;9.30;;;;;;;-0.66;83.63;94372.22;6030087;23;20215;-79
2020/12/11 03:06:11;;;;;;;13.67;9.67;;;;;;;-0.53;82.57;94362.31;6027714;23;20510;-79
2020/12/11 03:08:39;;;;;;;11.57;9.50;;;;;;;-0.63;82.77;94364.19;6027178;23;20673;-79
2020/12/11 03:11:06;;;;;;;11.60;9.70;;;;;;;-0.62;82.62;94353.66;6025449;23;20451;-79
2020/12/11 03:13:34;;;;;;;11.90;10.53;;;;;;;-0.76;82.87;94351.56;6029606;23;20444;-79
2020/12/11 03:16:00;;;;;;;11.57;10.47;;;;;;;-0.76;83.42;94351.56;6028055;23;20464;-78
2020/12/11 03:18:27;;;;;;;11.10;10.00;;;;;;;-0.77;82.63;94343.94;6029043;23;20460;-79
2020/12/11 03:20:54;;;;;;;11.53;9.43;;;;;;;-0.87;83.13;94355.19;6030009;23;20442;-78
2020/12/11 03:23:21;;;;;;;12.23;11.03;;;;;;;-0.81;83.45;94358.97;6029344;23;20215;-79
2020/12/11 03:25:49;;;;;;;11.57;10.27;;;;;;;-0.88;83.40;94347.56;6028035;23;20462;-78
2020/12/11 03:28:16;;;;;;;12.97;9.53;;;;;;;-0.92;83.59;94343.63;6029164;23;20445;-78
2020/12/11 03:30:43;;;;;;;11.17;10.03;;;;;;;-1.01;83.50;94353.09;6026350;23;20455;-78
2020/12/11 03:33:10;;;;;;;11.53;10.40;;;;;;;-0.97;83.69;94354.44;6027293;23;20436;-78
2020/12/11 03:35:37;;;;;;;11.30;10.17;;;;;;;-1.10;84.08;94359.13;6026859;23;20497;-79
2020/12/11 03:38:04;;;;;;;13.63;11.53;;;;;;;-1.15;83.39;94345.84;6028765;23;20525;-78
2020/12/11 03:40:31;;;;;;;13.50;10.83;;;;;;;-1.17;83.69;94337.41;6027052;23;20506;-78
2020/12/11 03:42:58;;;;;;;10.87;9.60;;;;;;;-1.27;84.13;94328.88;6027957;23;20460;-78
2020/12/11 03:45:25;;;;;;;11.10;9.97;;;;;;;-1.33;84.40;94316.50;6028463;23;20495;-78
2020/12/11 03:47:53;;;;;;;13.13;11.13;;;;;;;-1.32;84.58;94324.13;6027436;23;20486;-78
2020/12/11 03:50:19;;;;;;;12.37;10.30;;;;;;;-1.40;84.76;94311.09;6027417;23;20435;-78
2020/12/11 03:52:46;;;;;;;12.17;10.90;;;;;;;-1.37;84.88;94308.25;6028056;23;20488;-78
2020/12/11 03:55:13;;;;;;;11.43;10.07;;;;;;;-1.39;84.89;94296.38;6026091;23;20463;-77
2020/12/11 03:57:40;;;;;;;11.53;10.40;;;;;;;-1.40;84.80;94300.75;6027581;23;21049;-77
2020/12/11 04:00:07;;;;;;;11.07;10.07;;;;;;;-1.33;84.88;94295.81;6027754;23;20484;-77
2020/12/11 04:02:34;;;;;;;11.37;10.00;;;;;;;-1.36;84.39;94307.28;6025949;23;20795;-77
2020/12/11 04:05:02;;;;;;;10.77;9.67;;;;;;;-1.19;83.68;94297.88;6028934;23;20532;-77
2020/12/11 04:07:29;;;;;;;13.00;11.30;;;;;;;-1.26;84.12;94297.69;6028620;23;20435;-77
2020/12/11 04:09:56;;;;;;;10.77;9.20;;;;;;;-1.24;84.12;94289.78;6025489;23;20499;-77
2020/12/11 04:12:23;;;;;;;13.70;10.60;;;;;;;-1.32;84.67;94281.91;6027391;23;20958;-77
2020/12/11 04:14:51;;;;;;;9.67;8.27;;;;;;;-1.38;84.44;94282.47;6028035;23;20443;-77
2020/12/11 04:17:18;;;;;;;10.50;9.13;;;;;;;-1.29;85.09;94281.63;6028959;23;20439;-77
2020/12/11 04:19:45;;;;;;;10.50;9.37;;;;;;;-1.27;84.60;94269.38;6029429;23;20830;-77
2020/12/11 04:22:13;;;;;;;14.50;10.33;;;;;;;-1.16;84.26;94271.72;6026964;23;20502;-77
2020/12/11 04:24:39;;;;;;;12.47;10.47;;;;;;;-1.26;84.40;94265.81;6027342;23;21111;-77
2020/12/11 04:27:06;;;;;;;11.23;10.13;;;;;;;-1.31;85.28;94257.66;6028561;23;20462;-77
2020/12/11 04:29:33;;;;;;;11.07;9.43;;;;;;;-1.26;84.82;94242.53;6028801;23;20440;-77
2020/12/11 04:32:00;;;;;;;10.27;8.97;;;;;;;-1.27;84.96;94248.66;6027610;23;20980;-76
2020/12/11 04:34:27;;;;;;;15.77;11.20;;;;;;;-1.27;85.08;94246.88;6028059;23;20436;-77
2020/12/11 04:36:56;;;;;;;10.90;9.77;;;;;;;-1.25;85.37;94251.91;6028063;23;20833;-77
2020/12/11 04:39:24;;;;;;;11.43;10.30;;;;;;;-1.22;84.89;94246.44;6028850;23;20853;-77
2020/12/11 04:41:52;;;;;;;10.97;9.83;;;;;;;-1.28;85.23;94252.19;6028452;23;21056;-77
2020/12/11 04:44:21;;;;;;;12.40;9.97;;;;;;;-1.25;85.41;94246.72;6027533;23;20436;-76
2020/12/11 04:46:47;;;;;;;13.73;11.73;;;;;;;-1.19;85.08;94246.97;6029467;23;20470;-77
2020/12/11 04:49:15;;;;;;;11.30;9.63;;;;;;;-1.25;85.41;94251.91;6029102;23;20585;-76
2020/12/11 04:51:50;;;;;;;11.40;10.20;;;;;;;-1.22;85.90;94249.03;6026904;23;20422;-77
2020/12/11 04:54:20;;;;;;;12.17;9.70;;;;;;;-1.25;86.12;94251.91;6026425;23;20434;-77
2020/12/11 04:56:49;;;;;;;11.20;10.03;;;;;;;-1.27;86.20;94241.72;6028326;23;20440;-77
2020/12/11 04:59:17;;;;;;;12.07;9.47;;;;;;;-1.33;85.93;94233.72;6028667;23;20494;-76
2020/12/11 05:01:43;;;;;;;10.90;9.83;;;;;;;-1.22;86.21;94230.91;6028450;23;20495;-77
2020/12/11 05:04:11;;;;;;;10.43;9.43;;;;;;;-1.18;85.84;94229.66;6027218;23;20504;-76
2020/12/11 05:06:37;;;;;;;10.97;9.80;;;;;;;-1.23;85.51;94229.28;6028017;23;20472;-77
2020/12/11 05:09:13;;;;;;;11.73;10.53;;;;;;;-1.29;85.38;94224.69;6026327;23;20558;-76
2020/12/11 05:11:41;;;;;;;11.80;10.03;;;;;;;-1.36;86.22;94231.44;6025966;23;20443;-77
2020/12/11 05:14:25;;;;;;;10.20;9.20;;;;;;;-1.44;86.42;94227.78;6028968;23;20451;-76
2020/12/11 05:17:01;;;;;;;11.83;10.63;;;;;;;-1.46;86.73;94228.91;6025787;23;20507;-76
2020/12/11 05:19:29;;;;;;;9.73;8.73;;;;;;;-1.45;87.36;94220.19;6028416;23;20439;-76
2020/12/11 05:22:09;;;;;;;11.63;10.47;;;;;;;-1.47;87.32;94222.06;6028589;23;20456;-77
2020/12/11 05:24:43;;;;;;;14.07;11.30;;;;;;;-1.53;86.99;94213.16;6028313;23;20435;-76
2020/12/11 05:27:38;;;;;;;14.50;12.27;;;;;;;-1.59;87.49;94202.56;6026676;23;20786;-76
2020/12/11 05:30:23;;;;;;;10.17;9.17;;;;;;;-1.66;87.57;94202.31;6027811;23;20442;-76
2020/12/11 05:32:53;;;;;;;11.83;9.20;;;;;;;-1.69;87.73;94199.22;6025656;23;20506;-76
2020/12/11 05:35:23;;;;;;;10.20;9.00;;;;;;;-1.69;87.93;94197.44;6028466;23;20464;-77
2020/12/11 05:37:52;;;;;;;11.77;10.67;;;;;;;-1.67;88.38;94200.69;6028452;23;20528;-76
2020/12/11 05:40:20;;;;;;;10.87;9.70;;;;;;;-1.61;88.15;94199.31;6026180;23;20432;-77
2020/12/11 05:43:09;;;;;;;14.70;10.90;;;;;;;-1.65;88.35;94190.19;6024708;23;20443;-77
2020/12/11 05:45:38;;;;;;;14.70;10.40;;;;;;;-1.71;88.46;94189.03;6026266;23;20473;-77
2020/12/11 05:48:06;;;;;;;14.50;11.77;;;;;;;-1.76;88.83;94186.88;6026220;23;20447;-76
2020/12/11 05:50:33;;;;;;;11.23;10.23;;;;;;;-1.79;88.82;94186.34;6025348;23;20492;-76
2020/12/11 05:53:00;;;;;;;12.17;10.70;;;;;;;-1.85;89.35;94181.75;6024411;23;20719;-76
2020/12/11 05:55:27;;;;;;;12.63;10.10;;;;;;;-1.95;89.57;94175.81;6027194;23;20500;-77
2020/12/11 05:57:56;;;;;;;10.77;9.63;;;;;;;-1.99;89.85;94175.31;6028859;23;20506;-76
2020/12/11 06:00:23;;;;;;;13.90;9.47;;;;;;;-2.02;89.72;94175.59;6026429;23;20435;-76
2020/12/11 06:02:52;;;;;;;12.67;9.73;;;;;;;-2.06;90.05;94169.91;6028215;23;20440;-76
2020/12/11 06:05:21;;;;;;;8.73;7.97;;;;;;;-2.10;90.26;94160.00;6026366;23;20502;-76
2020/12/11 06:07:50;;;;;;;8.83;7.90;;;;;;;-2.13;90.29;94162.84;6028217;23;20470;-76
2020/12/11 06:10:18;;;;;;;13.87;9.30;;;;;;;-2.17;90.64;94161.53;6025930;23;20468;-76
2020/12/11 06:12:45;;;;;;;14.33;10.50;;;;;;;-2.23;90.92;94154.34;6026233;23;20479;-76
2020/12/11 06:15:23;;;;;;;15.83;10.30;;;;;;;-2.26;90.79;94152.88;6026452;23;20439;-76
2020/12/11 06:17:55;;;;;;;13.33;10.13;;;;;;;-2.29;90.97;94142.81;6027516;23;20443;-76
2020/12/11 06:20:22;;;;;;;14.10;11.30;;;;;;;-2.31;91.17;94144.72;6027399;23;20522;-76
2020/12/11 06:22:49;;;;;;;12.47;11.27;;;;;;;-2.34;90.97;94150.19;6027894;23;20502;-75
2020/12/11 06:25:30;;;;;;;14.23;10.77;;;;;;;-2.36;90.95;94152.09;6028041;23;20440;-76
2020/12/11 06:27:58;;;;;;;14.07;10.23;;;;;;;-2.41;91.07;94149.94;6027636;23;21012;-75
2020/12/11 06:30:27;;;;;;;13.87;12.10;;;;;;;-2.43;90.90;94140.72;6025808;23;20507;-76
2020/12/11 06:32:55;;;;;;;14.80;10.37;;;;;;;-2.43;91.42;94151.03;6025437;23;20467;-75
2020/12/11 06:35:23;;;;;;;13.17;9.90;;;;;;;-2.46;91.38;94144.41;6027890;23;20991;-76
2020/12/11 06:37:50;;;;;;;11.43;9.83;;;;;;;-2.46;91.23;94141.81;6028251;23;20436;-78
2020/12/11 06:40:17;;;;;;;15.03;12.23;;;;;;;-2.44;91.31;94139.91;6028523;23;20522;-78
2020/12/11 06:42:45;;;;;;;14.17;11.67;;;;;;;-2.43;91.63;94140.72;6028861;23;20930;-78
2020/12/11 06:45:17;;;;;;;13.77;10.43;;;;;;;-2.44;91.53;94139.09;6026462;23;20436;-78
2020/12/11 06:47:48;;;;;;;15.87;14.27;;;;;;;-2.44;91.48;94134.72;6026448;23;20487;-80
2020/12/11 06:50:18;;;;;;;13.60;10.13;;;;;;;-2.44;91.36;94139.09;6026221;23;20447;-80
2020/12/11 06:52:46;;;;;;;13.13;10.50;;;;;;;-2.44;91.77;94146.84;6028695;23;20739;-80
2020/12/11 06:55:13;;;;;;;13.83;10.53;;;;;;;-2.44;91.66;94149.41;6027476;23;20439;-80
2020/12/11 06:57:44;;;;;;;13.13;10.67;;;;;;;-2.45;91.57;94143.44;6027978;23;20632;-80
2020/12/11 07:00:29;;;;;;;11.03;9.50;;;;;;;-2.43;91.97;94151.03;6027241;23;20432;-80
2020/12/11 07:03:25;;;;;;;13.03;11.47;;;;;;;-2.44;92.12;94149.41;6029000;23;20475;-81
2020/12/11 07:05:58;;;;;;;11.00;9.17;;;;;;;-2.44;92.39;94149.41;6026660;23;20448;-80
2020/12/11 07:08:25;;;;;;;15.57;11.90;;;;;;;-2.42;92.14;94144.91;6027272;23;20515;-80
2020/12/11 07:10:52;;;;;;;13.57;11.63;;;;;;;-2.39;92.20;94142.03;6026994;23;20424;-79
2020/12/11 07:13:20;;;;;;;15.10;12.40;;;;;;;-2.35;92.41;94133.88;6027836;23;20483;-80
2020/12/11 07:15:56;;;;;;;15.23;11.80;;;;;;;-2.33;92.29;94136.31;6025987;23;20926;-79
2020/12/11 07:18:23;;;;;;;15.20;12.57;;;;;;;-2.29;92.32;94137.63;6026690;23;20427;-80
2020/12/11 07:20:53;;;;;;;15.47;12.27;;;;;;;-2.24;92.49;94140.63;6028244;23;20521;-79
2020/12/11 07:23:22;;;;;;;14.23;11.63;;;;;;;-2.17;92.50;94140.88;6028887;23;20499;-80
2020/12/11 07:25:51;;;;;;;15.57;12.43;;;;;;;-2.12;92.09;94139.44;6027089;23;20439;-78
2020/12/11 07:28:18;;;;;;;26.80;18.33;;;;;;;-2.06;91.85;94136.31;6028262;23;20443;-77
2020/12/11 07:30:46;;;;;;;30.63;21.20;;;;;;;-1.99;92.28;94133.16;6026653;23;20443;-78
2020/12/11 07:33:14;;;;;;;69.13;32.97;;;;;;;-1.95;91.54;94134.47;6025695;23;20787;-78
2020/12/11 07:35:45;;;;;;;22.63;18.53;;;;;;;-1.95;91.71;94135.28;6028058;23;20455;-78
2020/12/11 07:38:12;;;;;;;18.23;13.93;;;;;;;-1.93;92.06;94142.88;6028643;23;21013;-78
2020/12/11 07:40:40;;;;;;;15.97;10.87;;;;;;;-1.93;91.91;94127.38;6027551;23;20436;-78
2020/12/11 07:43:09;;;;;;;16.50;11.00;;;;;;;-1.96;91.62;94122.50;6028008;23;20490;-78
2020/12/11 07:45:40;;;;;;;13.93;10.03;;;;;;;-1.96;91.60;94123.31;6030208;23;20434;-79
2020/12/11 07:48:07;;;;;;;15.20;11.53;;;;;;;-1.96;91.71;94127.69;6027969;23;20468;-78
2020/12/11 07:50:34;;;;;;;13.60;10.97;;;;;;;-1.92;91.94;94129.84;6026416;23;20495;-78
2020/12/11 07:53:08;;;;;;;14.27;12.23;;;;;;;-1.87;91.91;94121.63;6029520;23;20503;-78
2020/12/11 07:55:35;;;;;;;13.30;10.90;;;;;;;-1.77;91.81;94118.00;6029900;23;20440;-78
2020/12/11 07:58:03;;;;;;;11.77;10.00;;;;;;;-1.71;91.49;94116.63;6028325;23;20494;-78
2020/12/11 08:00:34;;;;;;;13.70;11.40;;;;;;;-1.66;91.52;94104.06;6030771;23;20505;-78
2020/12/11 08:03:06;;;;;;;13.70;11.43;;;;;;;-1.60;91.13;94106.06;6028568;23;20439;-78
2020/12/11 08:05:34;;;;;;;17.33;13.50;;;;;;;-1.58;90.72;94100.72;6028126;23;20959;-78
2020/12/11 08:08:02;;;;;;;17.40;13.93;;;;;;;-1.57;90.45;94092.81;6030360;23;20444;-78
2020/12/11 08:10:38;;;;;;;14.93;13.37;;;;;;;-1.56;90.34;94094.44;6026103;23;20466;-78
2020/12/11 08:13:17;;;;;;;17.33;15.30;;;;;;;-1.51;90.02;94089.63;6028693;23;20487;-80
2020/12/11 08:15:45;;;;;;;14.23;11.57;;;;;;;-1.45;90.38;94091.63;6028672;23;20440;-81
2020/12/11 08:18:21;;;;;;;14.43;11.03;;;;;;;-1.37;90.14;94093.50;6029872;23;20443;-81
2020/12/11 08:20:53;;;;;;;14.63;12.97;;;;;;;-1.26;89.83;94088.06;6028125;23;20454;-80
2020/12/11 08:23:26;;;;;;;14.77;11.90;;;;;;;-1.20;89.98;94078.88;6027053;23;20439;-80
2020/12/11 08:26:07;;;;;;;14.23;12.63;;;;;;;-1.15;90.01;94077.47;6027311;23;20436;-81
2020/12/11 08:28:36;;;;;;;15.40;11.23;;;;;;;-1.05;89.30;94074.78;6026686;23;20446;-81
2020/12/11 08:31:28;;;;;;;13.67;12.13;;;;;;;-1.02;89.12;94068.47;6028496;23;20853;-80
2020/12/11 08:34:06;;;;;;;14.97;13.53;;;;;;;-1.00;88.85;94059.59;6029603;23;20439;-81
2020/12/11 08:36:34;;;;;;;16.90;12.97;;;;;;;-1.02;89.07;94066.69;6029492;23;20437;-81
2020/12/11 08:39:10;;;;;;;14.90;10.67;;;;;;;-0.95;88.33;94059.94;6026704;23;20501;-81
2020/12/11 08:41:40;;;;;;;12.20;9.87;;;;;;;-0.90;89.15;94064.69;6028773;23;20491;-80
2020/12/11 08:44:17;;;;;;;20.93;16.23;;;;;;;-0.87;88.46;94056.59;6027954;23;20515;-80
2020/12/11 08:46:56;;;;;;;18.70;13.73;;;;;;;-0.80;89.17;94054.22;6028261;23;20443;-81
2020/12/11 08:49:44;;;;;;;22.10;16.70;;;;;;;-0.75;88.09;94042.41;6028418;23;20434;-81
2020/12/11 08:52:11;;;;;;;21.87;17.17;;;;;;;-0.75;87.47;94041.59;6028855;23;20967;-80
2020/12/11 08:54:38;;;;;;;23.63;17.23;;;;;;;-0.70;86.59;94044.53;6027407;23;20436;-81
2020/12/11 08:57:05;;;;;;;17.83;13.57;;;;;;;-0.68;86.57;94032.25;6028091;23;20463;-81
2020/12/11 08:59:33;;;;;;;18.47;13.67;;;;;;;-0.61;86.29;94031.47;6028830;23;20472;-80
2020/12/11 09:02:01;;;;;;;14.90;12.00;;;;;;;-0.56;86.48;94028.38;6026772;23;20448;-81
2020/12/11 09:04:28;;;;;;;15.13;12.73;;;;;;;-0.53;85.34;94020.31;6028949;23;20450;-81
2020/12/11 09:06:56;;;;;;;20.13;14.33;;;;;;;-0.46;85.37;94015.31;6027191;23;21002;-81
2020/12/11 09:09:23;;;;;;;98.60;51.37;;;;;;;-0.46;85.46;94016.13;6028264;23;20941;-81
2020/12/11 09:11:50;;;;;;;60.80;33.27;;;;;;;-0.42;85.60;94017.44;6027107;23;20502;-82
2020/12/11 09:14:17;;;;;;;27.30;17.40;;;;;;;-0.35;85.65;94009.84;6027904;23;20990;-82
2020/12/11 09:16:45;;;;;;;26.07;18.87;;;;;;;-0.26;85.73;94013.28;6027108;23;20200;-83
2020/12/11 09:19:14;;;;;;;36.93;25.03;;;;;;;-0.20;85.16;94010.03;6023571;23;20813;-84
2020/12/11 09:21:44;;;;;;;46.97;27.57;;;;;;;-0.13;85.26;94001.47;6028315;23;20432;-83
2020/12/11 09:24:10;;;;;;;52.57;31.87;;;;;;;-0.11;84.53;94001.31;6027798;23;20534;-84
2020/12/11 09:26:37;;;;;;;32.97;20.07;;;;;;;-0.07;84.55;93994.84;6029525;23;20443;-83
2020/12/11 09:29:11;;;;;;;29.03;17.87;;;;;;;-0.07;83.91;93994.84;6029628;23;20440;-84
2020/12/11 09:31:41;;;;;;;26.87;16.47;;;;;;;0.00;83.88;93995.81;6029450;23;20439;-86
2020/12/11 09:34:09;;;;;;;15.33;12.73;;;;;;;0.11;84.06;94000.69;6026070;23;20229;-85
2020/12/11 09:36:36;;;;;;;16.53;12.90;;;;;;;0.21;83.30;94003.13;6018154;23;20703;-85
2020/12/11 09:39:03;;;;;;;16.33;12.50;;;;;;;0.26;82.73;93999.06;6028286;23;20230;-85
2020/12/11 09:41:36;;;;;;;15.87;13.90;;;;;;;0.42;83.05;94002.63;6027998;23;20434;-84
2020/12/11 09:47:13;;;;;;;12.27;9.43;;;;;;;1.10;80.70;93989.22;6027513;23;20443;-84
2020/12/11 09:49:51;;;;;;;13.80;11.47;;;;;;;1.40;79.50;93991.06;6051167;23;20594;-85
2020/12/11 09:52:32;;;;;;;12.83;9.73;;;;;;;1.69;78.76;93990.44;6028052;23;20250;-84
2020/12/11 09:54:59;;;;;;;11.20;9.87;;;;;;;1.95;76.44;93995.31;6030507;23;20240;-84
2020/12/11 09:57:25;;;;;;;12.20;10.90;;;;;;;1.98;76.06;93994.97;6027244;23;20688;-84
2020/12/11 09:59:56;;;;;;;11.57;10.40;;;;;;;2.13;76.18;93983.84;6028926;23;20222;-85
2020/12/11 10:02:33;;;;;;;10.73;9.63;;;;;;;2.28;75.57;93979.47;6029869;23;20207;-84
2020/12/11 10:05:03;;;;;;;11.70;9.37;;;;;;;2.20;75.50;93971.75;6013819;23;20223;-85
2020/12/11 10:07:41;;;;;;;12.33;11.03;;;;;;;2.11;74.76;93978.81;6018625;23;20289;-85
2020/12/11 10:10:08;;;;;;;12.07;10.77;;;;;;;1.93;75.95;93966.06;6025742;23;20236;-85
2020/12/11 10:12:35;;;;;;;11.53;10.23;;;;;;;1.90;76.40;93970.78;6027375;23;20228;-85
2020/12/11 10:15:04;;;;;;;10.40;8.87;;;;;;;1.86;77.25;93965.16;6030425;23;20274;-85
2020/12/11 10:17:31;;;;;;;16.83;12.57;;;;;;;1.75;77.60;93977.75;6027652;23;20221;-85
2020/12/11 10:19:58;;;;;;;14.47;11.10;;;;;;;1.56;78.84;93968.56;6026778;23;20481;-84
2020/12/11 10:22:26;;;;;;;13.50;10.90;;;;;;;1.50;79.25;93971.84;6027465;23;20517;-85
2020/12/11 10:24:53;;;;;;;12.27;10.43;;;;;;;1.40;78.94;93970.28;6027836;23;20203;-85
2020/12/11 10:27:20;;;;;;;11.20;9.93;;;;;;;1.33;79.68;93977.13;6027337;23;20204;-86
2020/12/11 10:29:47;;;;;;;10.87;9.77;;;;;;;1.23;80.54;93963.50;6028210;23;20208;-86
2020/12/11 10:32:13;;;;;;;12.20;10.90;;;;;;;1.26;80.17;93963.16;6028107;23;20204;-86
2020/12/11 10:34:40;;;;;;;10.87;9.67;;;;;;;1.21;80.26;93960.28;6027087;23;20210;-85
2020/12/11 10:37:08;;;;;;;11.13;9.20;;;;;;;1.15;80.12;93960.94;6028167;23;20243;-86
2020/12/11 10:39:36;;;;;;;11.80;10.17;;;;;;;1.16;80.71;93962.56;6027977;23;20237;-86
2020/12/11 10:42:04;;;;;;;12.83;10.37;;;;;;;1.08;80.21;93960.00;6028632;23;20524;-86
2020/12/11 10:44:31;;;;;;;11.20;9.47;;;;;;;1.04;80.46;93962.13;6029648;23;23073;-86
2020/12/11 10:46:59;;;;;;;9.17;8.27;;;;;;;1.08;80.36;93957.41;6028359;23;20270;-86
2020/12/11 10:49:26;;;;;;;12.53;11.13;;;;;;;1.09;79.87;93946.84;6026941;23;20206;-87
2020/12/11 10:51:53;;;;;;;11.07;9.97;;;;;;;1.21;80.15;93955.09;6029761;23;20202;-86
2020/12/11 10:54:22;;;;;;;13.10;11.67;;;;;;;1.28;79.65;93956.03;6033748;23;20211;-86
2020/12/11 10:56:50;;;;;;;10.73;9.63;;;;;;;1.37;80.12;93960.22;6030028;23;20602;-86
2020/12/11 10:59:17;;;;;;;14.40;10.27;;;;;;;1.34;80.13;93955.34;6030364;23;20249;-86
2020/12/11 11:01:45;;;;;;;13.60;9.93;;;;;;;1.41;80.27;93955.47;6034825;23;20203;-86
2020/12/11 11:04:12;;;;;;;11.23;9.93;;;;;;;1.36;79.96;93955.16;6028451;23;20200;-86
2020/12/11 11:06:44;;;;;;;12.80;10.77;;;;;;;1.40;80.15;93959.06;6028893;23;20263;-87
2020/12/11 11:11:59;;;;;;;11.83;10.70;;;;;;;1.51;79.73;93960.47;6023298;23;20203;-86
2020/12/11 11:14:47;;;;;;;11.60;10.63;;;;;;;1.64;78.65;93955.50;6027713;23;20210;-86
2020/12/11 11:20:10;;;;;;;15.27;13.27;;;;;;;1.62;77.98;93949.69;6029331;23;20240;-86
2020/12/11 11:22:44;;;;;;;9.10;8.20;;;;;;;1.49;78.44;93947.66;6029264;23;20218;-86
2020/12/11 11:25:40;;;;;;;10.20;9.17;;;;;;;1.38;77.98;93943.66;6028999;23;20214;-86
2020/12/11 11:28:08;;;;;;;15.90;11.30;;;;;;;1.27;78.23;93944.00;6027555;23;20265;-86
2020/12/11 11:30:36;;;;;;;12.47;11.20;;;;;;;1.28;78.85;93945.66;6028592;23;20265;-86
2020/12/11 11:33:03;;;;;;;12.00;9.67;;;;;;;1.48;78.14;93942.63;6029618;23;20207;-86
2020/12/11 11:35:30;;;;;;;9.17;8.27;;;;;;;1.74;77.62;93948.31;6029355;23;20217;-87
2020/12/11 11:37:58;;;;;;;10.60;9.60;;;;;;;1.86;77.72;93933.94;6028601;23;20233;-87
2020/12/11 11:40:25;;;;;;;9.10;8.27;;;;;;;1.93;77.02;93929.66;6028656;23;20207;-87